Time;durP1;ratioP1;P1;durP2;ratioP2;P2;SDS_P1;SDS_P2;PMS_P1;PMS_P2;Temp;Humidity;BMP_temperature;BMP_pressure;BME280_temperature;BME280_humidity;BME280_pressure;Samples;Min_cycle;Max_cycle;Signal;HPM_P1;HPM_P2
2023/02/10 00:01:03;;;;;;;34.30;21.33;;;5.30;1.00;;;;;;5002904;28;20447;-86
2023/02/10 00:03:30;;;;;;;30.87;20.83;;;5.30;1.00;;;;;;5003737;28;20480;-87
2023/02/10 00:05:57;;;;;;;35.70;20.50;;;5.30;1.00;;;;;;5006143;28;20480;-86
2023/02/10 00:08:26;;;;;;;39.17;22.40;;;5.30;13.40;;;;;;5010382;28;20508;-87
2023/02/10 00:10:52;;;;;;;32.63;19.90;;;5.30;99.90;;;;;;4994707;28;20480;-87
2023/02/10 00:13:19;;;;;;;33.97;21.20;;;5.30;99.90;;;;;;4994380;28;20546;-84
2023/02/10 00:15:46;;;;;;;35.83;22.67;;;5.20;99.90;;;;;;5002269;28;20517;-87
2023/02/10 00:18:13;;;;;;;34.93;22.73;;;5.20;99.90;;;;;;5002735;28;21043;-86
2023/02/10 00:20:40;;;;;;;33.80;20.40;;;5.20;99.90;;;;;;5002548;28;20483;-87
2023/02/10 00:23:07;;;;;;;37.83;22.13;;;5.20;99.90;;;;;;5002273;28;20495;-84
2023/02/10 00:25:36;;;;;;;33.07;19.90;;;5.30;99.90;;;;;;5002474;28;20439;-86
2023/02/10 00:28:03;;;;;;;38.47;20.53;;;5.20;99.90;;;;;;5001070;28;20552;-86
2023/02/10 00:30:31;;;;;;;33.97;22.30;;;5.30;99.90;;;;;;5000921;28;20467;-84
2023/02/10 00:32:58;;;;;;;37.30;22.00;;;5.10;99.90;;;;;;5001845;28;20469;-85
2023/02/10 00:35:24;;;;;;;37.90;24.00;;;5.00;1.00;;;;;;5004323;28;20475;-85
2023/02/10 00:37:51;;;;;;;34.73;20.67;;;5.00;1.00;;;;;;5003780;28;20455;-85
2023/02/10 00:40:18;;;;;;;37.57;24.07;;;5.20;1.00;;;;;;5003320;28;20473;-85
2023/02/10 00:42:47;;;;;;;35.67;22.80;;;5.10;1.00;;;;;;5008650;28;20902;-85
2023/02/10 00:45:14;;;;;;;42.67;22.93;;;5.10;1.00;;;;;;4998593;28;20451;-84
2023/02/10 00:47:41;;;;;;;41.43;23.87;;;5.20;99.90;;;;;;5002633;28;20495;-86
2023/02/10 00:50:08;;;;;;;41.30;25.63;;;5.20;99.90;;;;;;4990623;28;20935;-85
2023/02/10 00:52:35;;;;;;;36.10;23.70;;;5.10;50.90;;;;;;4984640;28;20473;-84
2023/02/10 00:55:02;;;;;;;36.63;23.40;;;5.20;1.00;;;;;;4983453;28;20980;-87
2023/02/10 00:57:28;;;;;;;35.87;23.53;;;5.20;99.90;;;;;;5002875;28;20487;-86
2023/02/10 00:59:57;;;;;;;42.77;25.43;;;5.30;24.20;;;;;;5001959;28;20449;-84
2023/02/10 01:02:23;;;;;;;38.23;23.47;;;5.30;1.00;;;;;;5001377;28;20505;-85
2023/02/10 01:04:50;;;;;;;39.60;23.53;;;5.20;99.90;;;;;;5002486;28;20480;-86
2023/02/10 01:07:17;;;;;;;35.77;22.90;;;5.30;1.00;;;;;;5002269;28;20576;-85
2023/02/10 01:09:44;;;;;;;39.17;24.70;;;5.20;1.00;;;;;;5003416;28;20475;-86
2023/02/10 01:12:11;;;;;;;38.80;22.93;;;5.10;99.90;;;;;;5008417;28;20476;-86
2023/02/10 01:14:38;;;;;;;36.43;21.30;;;5.10;99.90;;;;;;5003123;28;20528;-86
2023/02/10 01:17:06;;;;;;;50.00;24.60;;;5.10;99.90;;;;;;5004943;28;20545;-85
2023/02/10 01:19:33;;;;;;;37.10;23.53;;;5.00;99.90;;;;;;4985540;28;20531;-86
2023/02/10 01:22:00;;;;;;;45.37;25.73;;;4.90;99.90;;;;;;4994479;28;20495;-84
2023/02/10 01:24:26;;;;;;;42.70;24.40;;;4.80;99.90;;;;;;4996835;28;20509;-87
2023/02/10 01:26:53;;;;;;;39.37;23.47;;;4.80;99.90;;;;;;5002091;28;20531;-85
2023/02/10 01:29:20;;;;;;;36.37;22.07;;;4.80;1.00;;;;;;5005743;28;20533;-86
2023/02/10 01:31:47;;;;;;;38.77;24.17;;;4.80;1.00;;;;;;5005793;28;20471;-86
2023/02/10 01:34:15;;;;;;;47.73;25.13;;;4.90;99.90;;;;;;5004979;28;20470;-85
2023/02/10 01:36:42;;;;;;;37.93;23.67;;;4.90;99.90;;;;;;5004930;28;20547;-86
2023/02/10 01:39:09;;;;;;;38.53;23.30;;;4.90;99.90;;;;;;5004781;28;20480;-86
2023/02/10 01:41:36;;;;;;;37.83;23.50;;;5.00;99.90;;;;;;4997362;28;20469;-86
2023/02/10 01:44:05;;;;;;;40.20;23.27;;;5.00;99.90;;;;;;4989919;28;20475;-85
2023/02/10 01:46:34;;;;;;;39.87;25.07;;;5.00;99.90;;;;;;5000744;28;20431;-85
2023/02/10 01:49:04;;;;;;;37.27;21.90;;;5.10;99.90;;;;;;5008293;28;20514;-84
2023/02/10 01:51:38;;;;;;;38.57;24.50;;;5.10;62.60;;;;;;5010869;28;20473;-85
2023/02/10 01:54:09;;;;;;;40.17;22.37;;;5.20;1.00;;;;;;4996309;28;20459;-86
2023/02/10 01:56:36;;;;;;;42.07;24.50;;;5.20;99.90;;;;;;4988491;28;20466;-86
2023/02/10 01:59:04;;;;;;;42.83;23.13;;;5.10;99.90;;;;;;4983291;28;20487;-83
2023/02/10 02:01:30;;;;;;;32.50;21.80;;;5.10;99.90;;;;;;4984588;28;20491;-85
2023/02/10 02:03:58;;;;;;;36.93;20.57;;;5.20;99.90;;;;;;4996521;28;21062;-86
2023/02/10 02:06:25;;;;;;;34.57;20.70;;;5.20;99.90;;;;;;5005515;28;20885;-86
2023/02/10 02:08:53;;;;;;;36.67;21.00;;;5.20;99.90;;;;;;5005195;28;20551;-85
2023/02/10 02:11:26;;;;;;;36.20;21.87;;;5.20;1.00;;;;;;5014892;28;20457;-87
2023/02/10 02:14:05;;;;;;;41.60;22.67;;;5.20;1.00;;;;;;5016001;28;20464;-86
2023/02/10 02:16:45;;;;;;;32.33;20.60;;;5.20;1.00;;;;;;5015239;28;20456;-86
2023/02/10 02:19:37;;;;;;;39.63;21.33;;;5.20;78.70;;;;;;5015532;28;20432;-87
2023/02/10 02:22:26;;;;;;;40.00;22.43;;;5.20;99.90;;;;;;5015123;28;20483;-90
2023/02/10 02:25:12;;;;;;;41.27;24.80;;;5.20;99.90;;;;;;5010360;28;20438;-87
2023/02/10 02:31:37;;;;;;;52.10;25.53;;;4.90;40.30;;;;;;5013411;28;20483;-86
2023/02/10 02:34:11;;;;;;;43.53;24.20;;;5.00;1.00;;;;;;5006646;28;20550;-84
2023/02/10 02:36:42;;;;;;;45.83;25.70;;;5.00;1.00;;;;;;5004694;28;20434;-84
2023/02/10 02:39:09;;;;;;;47.17;24.27;;;5.30;6.30;;;;;;5015114;28;20448;-83
2023/02/10 02:41:36;;;;;;;38.40;23.10;;;4.90;1.00;;;;;;5015257;28;20471;-84
2023/02/10 02:44:05;;;;;;;41.87;22.57;;;4.70;1.00;;;;;;5002999;28;20499;-84
2023/02/10 02:46:47;;;;;;;41.23;22.93;;;4.80;99.90;;;;;;4996142;28;20498;-85
2023/02/10 02:49:29;;;;;;;34.57;20.90;;;4.70;1.00;;;;;;5027502;28;20485;-83
2023/02/10 02:52:03;;;;;;;39.70;23.23;;;4.40;1.00;;;;;;5080092;28;20427;-82
2023/02/10 02:54:38;;;;;;;42.80;23.33;;;5.10;1.00;;;;;;5033164;28;20435;-82
2023/02/10 02:57:14;;;;;;;39.70;24.27;;;4.30;99.90;;;;;;5001781;28;21174;-82
2023/02/10 02:59:47;;;;;;;34.23;20.23;;;4.20;99.90;;;;;;5010332;28;20471;-83
2023/02/10 03:02:16;;;;;;;38.53;21.60;;;4.10;99.90;;;;;;5039341;28;20531;-83
2023/02/10 03:04:44;;;;;;;35.70;22.57;;;4.00;99.90;;;;;;5040198;28;20482;-81
2023/02/10 03:07:11;;;;;;;41.77;23.83;;;4.00;99.90;;;;;;5026503;28;20491;-81
2023/02/10 03:09:38;;;;;;;39.37;22.60;;;3.90;99.90;;;;;;5018466;28;20998;-81
2023/02/10 03:12:05;;;;;;;38.37;22.43;;;3.90;99.90;;;;;;4993538;28;20489;-86
2023/02/10 03:14:32;;;;;;;37.50;23.10;;;3.80;99.90;;;;;;4993802;28;20451;-86
2023/02/10 03:16:59;;;;;;;41.73;25.77;;;3.70;99.90;;;;;;5007706;28;20971;-86
2023/02/10 03:19:26;;;;;;;39.40;23.63;;;3.60;1.00;;;;;;5013425;28;20455;-86
2023/02/10 03:21:54;;;;;;;42.47;23.60;;;3.60;1.00;;;;;;4993400;28;20486;-86
2023/02/10 03:24:21;;;;;;;45.00;26.77;;;3.70;1.00;;;;;;4995421;28;20526;-81
2023/02/10 03:26:48;;;;;;;45.93;24.53;;;3.70;1.00;;;;;;4994949;28;20447;-87
2023/02/10 03:29:15;;;;;;;59.27;28.03;;;3.70;1.00;;;;;;4993176;28;20484;-86
2023/02/10 03:31:42;;;;;;;43.00;24.60;;;3.60;1.00;;;;;;4984382;28;20546;-87
2023/02/10 03:34:09;;;;;;;46.93;25.37;;;3.60;1.00;;;;;;4979346;28;20528;-86
2023/02/10 03:36:36;;;;;;;41.03;25.67;;;3.60;1.00;;;;;;4993579;28;20553;-87
2023/02/10 03:39:05;;;;;;;42.30;23.57;;;3.60;1.00;;;;;;5013514;28;20426;-85
2023/02/10 03:41:32;;;;;;;53.43;28.27;;;3.50;1.00;;;;;;5014637;28;20479;-87
2023/02/10 03:43:59;;;;;;;46.23;26.40;;;3.40;1.00;;;;;;5020696;28;20510;-87
2023/02/10 03:46:26;;;;;;;44.60;24.47;;;3.30;1.00;;;;;;5019743;28;20490;-87
2023/02/10 03:48:52;;;;;;;46.40;28.47;;;3.30;10.00;;;;;;4983176;28;20492;-86
2023/02/10 03:51:20;;;;;;;44.70;26.47;;;3.20;18.70;;;;;;5004159;28;20478;-87
2023/02/10 03:53:47;;;;;;;48.53;24.40;;;3.20;20.60;;;;;;5017536;28;20564;-86
2023/02/10 03:56:16;;;;;;;46.83;26.30;;;3.10;2.60;;;;;;5000285;28;20546;-86
2023/02/10 03:58:42;;;;;;;46.97;25.17;;;3.00;1.00;;;;;;5000128;28;20512;-86
2023/02/10 04:01:11;;;;;;;46.67;25.50;;;2.90;9.10;;;;;;5053281;28;20531;-87
2023/02/10 04:03:38;;;;;;;52.37;24.83;;;2.90;3.30;;;;;;5042951;28;20565;-86
2023/02/10 04:06:05;;;;;;;44.07;23.70;;;2.80;23.90;;;;;;4999077;28;20474;-86
2023/02/10 04:08:32;;;;;;;41.60;24.90;;;2.80;40.50;;;;;;5006692;28;20471;-86
2023/02/10 04:10:59;;;;;;;38.63;23.40;;;2.70;39.20;;;;;;4993716;28;20451;-86
2023/02/10 04:13:27;;;;;;;53.10;26.30;;;2.60;66.70;;;;;;5007126;28;20546;-86
2023/02/10 04:16:01;;;;;;;49.27;27.03;;;2.60;99.90;;;;;;4997024;28;20498;-85
2023/02/10 04:18:28;;;;;;;40.03;23.77;;;2.60;99.90;;;;;;4994482;28;20492;-86
2023/02/10 04:20:55;;;;;;;35.80;21.87;;;2.50;99.90;;;;;;4992640;28;20589;-85
2023/02/10 04:23:22;;;;;;;40.37;22.07;;;2.50;99.90;;;;;;5003420;28;20526;-86
2023/02/10 04:25:49;;;;;;;49.17;25.33;;;2.50;99.90;;;;;;4995520;28;20418;-86
2023/02/10 04:28:16;;;;;;;51.33;26.13;;;2.40;99.90;;;;;;5008945;28;20535;-86
2023/02/10 04:30:44;;;;;;;47.13;25.20;;;2.40;99.90;;;;;;4992560;28;20538;-86
2023/02/10 04:33:11;;;;;;;37.23;23.57;;;2.40;99.90;;;;;;5001486;28;20475;-86
2023/02/10 04:35:38;;;;;;;38.87;25.50;;;2.40;99.90;;;;;;4997722;28;20566;-86
2023/02/10 04:38:05;;;;;;;40.90;22.47;;;2.30;99.90;;;;;;4996957;28;20513;-85
2023/02/10 04:40:31;;;;;;;41.23;22.70;;;2.30;99.90;;;;;;4982902;28;20454;-86
2023/02/10 04:42:58;;;;;;;41.40;22.13;;;2.20;99.90;;;;;;4997682;28;20585;-86
2023/02/10 04:45:25;;;;;;;48.60;24.97;;;2.10;99.90;;;;;;4990541;28;20511;-87
2023/02/10 04:47:53;;;;;;;49.55;24.13;;;2.10;99.90;;;;;;5000573;28;20469;-86
2023/02/10 04:50:20;;;;;;;41.33;22.17;;;2.10;99.90;;;;;;5005491;28;20218;-86
2023/02/10 04:52:47;;;;;;;41.17;23.37;;;2.10;99.90;;;;;;4985053;28;20836;-86
2023/02/10 04:55:13;;;;;;;38.53;23.20;;;2.00;99.90;;;;;;4991840;28;20433;-83
2023/02/10 04:57:40;;;;;;;46.00;23.20;;;2.00;99.90;;;;;;5036218;28;20203;-83
2023/02/10 05:00:08;;;;;;;49.90;27.30;;;2.10;99.90;;;;;;5031244;28;20441;-84
2023/02/10 05:05:07;;;;;;;43.47;24.93;;;2.20;99.90;;;;;;4955829;28;21036;-79
2023/02/10 05:07:34;;;;;;;47.77;23.13;;;2.30;99.90;;;;;;4941144;28;20444;-79
2023/02/10 05:10:01;;;;;;;46.90;25.27;;;2.30;99.90;;;;;;4958257;28;20555;-79
2023/02/10 05:12:27;;;;;;;47.00;24.90;;;2.60;99.90;;;;;;4961398;28;20468;-78
2023/02/10 05:14:54;;;;;;;44.57;24.23;;;2.50;99.90;;;;;;4998013;28;20449;-79
2023/02/10 05:17:21;;;;;;;40.17;22.50;;;2.50;99.90;;;;;;4951704;28;20968;-79
2023/02/10 05:19:48;;;;;;;52.20;24.53;;;2.50;99.90;;;;;;4965529;28;20447;-80
2023/02/10 05:22:16;;;;;;;46.30;24.00;;;2.60;99.90;;;;;;4955393;28;20487;-80
2023/02/10 05:24:43;;;;;;;53.47;26.20;;;2.70;99.90;;;;;;4948051;28;20480;-79
2023/02/10 05:27:10;;;;;;;53.73;26.60;;;2.80;99.90;;;;;;4939352;29;20531;-79
2023/02/10 05:29:37;;;;;;;48.70;28.40;;;2.80;99.90;;;;;;4952962;28;20466;-79
2023/02/10 05:32:04;;;;;;;42.80;24.67;;;2.80;99.90;;;;;;4950721;28;20524;-81
2023/02/10 05:34:30;;;;;;;50.40;25.30;;;2.80;99.90;;;;;;4942459;28;21162;-78
2023/02/10 05:36:57;;;;;;;45.43;26.50;;;2.80;99.90;;;;;;4938411;29;20833;-80
2023/02/10 05:39:25;;;;;;;52.27;25.27;;;2.70;99.90;;;;;;4940356;28;20460;-80
2023/02/10 05:41:53;;;;;;;44.23;24.30;;;2.80;99.90;;;;;;4952415;28;20489;-80
2023/02/10 05:44:21;;;;;;;51.27;26.23;;;2.80;99.90;;;;;;4954497;28;20490;-78
2023/02/10 05:46:47;;;;;;;55.87;28.67;;;2.90;99.90;;;;;;4953839;28;20591;-78
2023/02/10 05:49:14;;;;;;;48.40;26.27;;;3.00;99.90;;;;;;4957834;28;20495;-80
2023/02/10 05:51:42;;;;;;;44.53;23.47;;;3.20;99.90;;;;;;4960043;29;21061;-80
2023/02/10 05:54:09;;;;;;;43.87;24.87;;;3.30;99.90;;;;;;4964801;28;20473;-79
2023/02/10 05:56:37;;;;;;;45.60;28.20;;;3.30;99.90;;;;;;4958136;28;20443;-79
2023/02/10 05:59:04;;;;;;;44.53;23.53;;;3.40;99.90;;;;;;4941437;28;20420;-79
2023/02/10 06:01:31;;;;;;;45.50;25.37;;;3.40;99.90;;;;;;4954478;29;20514;-79
2023/02/10 06:03:58;;;;;;;45.00;25.03;;;3.50;99.90;;;;;;4949209;28;20537;-80
2023/02/10 06:06:25;;;;;;;43.20;23.20;;;3.60;99.90;;;;;;4951840;28;20479;-78
2023/02/10 06:08:52;;;;;;;42.50;23.73;;;3.50;99.90;;;;;;4953336;28;20546;-79
2023/02/10 06:11:19;;;;;;;38.00;25.10;;;3.50;99.90;;;;;;4965586;28;20462;-79
2023/02/10 06:13:47;;;;;;;49.07;25.87;;;3.50;99.90;;;;;;4946652;29;20489;-78
2023/02/10 06:16:14;;;;;;;42.83;25.10;;;3.50;99.90;;;;;;4948073;28;21011;-80
2023/02/10 06:18:42;;;;;;;39.93;22.67;;;3.60;99.90;;;;;;4952698;29;20520;-79
2023/02/10 06:21:08;;;;;;;40.53;22.80;;;3.70;99.90;;;;;;4977705;28;21018;-79
2023/02/10 06:23:35;;;;;;;48.47;24.10;;;3.70;99.90;;;;;;4958029;28;20490;-81
2023/02/10 06:26:02;;;;;;;38.30;23.17;;;3.70;96.70;;;;;;4956610;28;20948;-81
2023/02/10 06:28:29;;;;;;;36.40;22.87;;;3.70;92.20;;;;;;4956025;28;20487;-82
2023/02/10 06:30:58;;;;;;;51.13;26.37;;;3.70;99.90;;;;;;4957951;28;20911;-78
2023/02/10 06:33:25;;;;;;;51.47;24.77;;;3.60;99.90;;;;;;4953749;28;20477;-82
2023/02/10 06:35:52;;;;;;;44.93;24.77;;;3.70;99.90;;;;;;4956803;28;20423;-81
2023/02/10 06:38:19;;;;;;;41.00;23.23;;;3.70;99.90;;;;;;4946831;28;20447;-79
2023/02/10 06:40:46;;;;;;;41.90;24.43;;;3.60;99.90;;;;;;4958383;28;20427;-81
2023/02/10 06:43:13;;;;;;;44.67;24.17;;;3.60;99.90;;;;;;4958969;29;20530;-81
2023/02/10 06:45:40;;;;;;;37.13;22.27;;;3.70;99.90;;;;;;4951615;28;20475;-81
2023/02/10 06:48:08;;;;;;;44.10;24.50;;;5.90;99.90;;;;;;4952099;29;20460;-80
2023/02/10 06:50:37;;;;;;;41.20;23.20;;;3.80;99.90;;;;;;4957453;28;20548;-83
2023/02/10 06:53:04;;;;;;;43.10;24.23;;;3.90;97.00;;;;;;4960008;28;20467;-83
2023/02/10 06:55:31;;;;;;;40.87;22.33;;;3.90;95.00;;;;;;4958364;28;20497;-81
2023/02/10 06:57:59;;;;;;;36.67;23.87;;;3.90;96.50;;;;;;4973432;28;20540;-81
2023/02/10 07:00:31;;;;;;;54.47;27.37;;;4.00;90.30;;;;;;4956454;28;20474;-79
2023/02/10 07:02:58;;;;;;;50.27;28.77;;;4.00;89.80;;;;;;4956940;28;20499;-81
2023/02/10 07:05:29;;;;;;;55.33;27.80;;;4.10;90.50;;;;;;4953694;28;20487;-79
2023/02/10 07:07:59;;;;;;;53.83;28.63;;;4.10;79.70;;;;;;4964465;28;21637;-79
2023/02/10 07:17:08;;;;;;;43.10;25.63;;;4.10;69.20;;;;;;4912457;29;20438;-78
2023/02/10 07:19:49;;;;;;;38.80;24.13;;;4.20;56.90;;;;;;4934963;29;20451;-79
2023/02/10 07:22:18;;;;;;;48.27;25.23;;;4.10;49.60;;;;;;4930812;29;20470;-79
2023/02/10 07:24:45;;;;;;;43.13;25.23;;;4.10;49.80;;;;;;4924626;29;20462;-78
2023/02/10 07:27:13;;;;;;;42.67;26.57;;;4.00;47.50;;;;;;4950476;28;20468;-77
2023/02/10 07:29:42;;;;;;;57.77;28.33;;;3.90;72.00;;;;;;4973539;28;20494;-80
2023/02/10 07:32:09;;;;;;;54.57;27.13;;;3.80;62.10;;;;;;4989599;28;20563;-81
2023/02/10 07:34:53;;;;;;;;;;;;;;;;;;;;;
2023/02/10 07:37:22;;;;;;;43.20;24.50;;;3.70;93.40;;;;;;4948220;28;20800;-81
2023/02/10 07:39:49;;;;;;;49.13;26.77;;;3.70;97.80;;;;;;4952142;28;20412;-80
2023/02/10 07:42:15;;;;;;;45.77;25.33;;;3.60;98.80;;;;;;4951654;28;20450;-81
2023/02/10 07:44:42;;;;;;;42.00;24.50;;;3.60;99.90;;;;;;4950716;28;20530;-79
2023/02/10 07:47:14;;;;;;;49.07;24.67;;;3.60;99.90;;;;;;4951711;28;20486;-80
2023/02/10 07:49:42;;;;;;;52.13;27.37;;;3.60;99.90;;;;;;4952949;28;20493;-80
2023/02/10 07:52:09;;;;;;;44.20;26.10;;;3.50;99.90;;;;;;4960941;28;20469;-80
2023/02/10 07:54:38;;;;;;;45.77;25.23;;;3.60;99.90;;;;;;4972297;28;20540;-80
2023/02/10 07:57:05;;;;;;;57.47;25.80;;;3.70;99.90;;;;;;4966194;28;20559;-80
2023/02/10 07:59:32;;;;;;;44.10;27.80;;;3.70;99.90;;;;;;4967184;28;20432;-80
2023/02/10 08:01:59;;;;;;;47.23;25.70;;;3.70;98.60;;;;;;4955413;28;20469;-84
2023/02/10 08:04:26;;;;;;;47.80;27.50;;;3.60;99.90;;;;;;4953674;28;20934;-83
2023/02/10 08:06:53;;;;;;;46.07;25.47;;;3.70;99.90;;;;;;4952518;29;20964;-84
2023/02/10 08:09:19;;;;;;;48.63;28.00;;;3.80;99.90;;;;;;4963222;28;20557;-84
2023/02/10 08:11:48;;;;;;;50.40;26.80;;;3.90;99.90;;;;;;4965854;28;20431;-84
2023/02/10 08:14:14;;;;;;;47.77;26.17;;;4.00;99.90;;;;;;4974424;28;20486;-83
2023/02/10 08:16:41;;;;;;;52.07;28.03;;;4.20;97.90;;;;;;4968535;28;20428;-83
2023/02/10 08:19:08;;;;;;;61.20;30.10;;;4.30;95.70;;;;;;4985449;28;20448;-84
2023/02/10 08:21:35;;;;;;;55.87;28.23;;;4.50;59.20;;;;;;4982540;28;20424;-82
2023/02/10 08:24:02;;;;;;;53.37;28.00;;;4.70;34.00;;;;;;4989100;28;21108;-83
2023/02/10 08:26:28;;;;;;;44.90;25.60;;;4.70;20.30;;;;;;4994495;28;20520;-84
2023/02/10 08:28:59;;;;;;;43.60;25.00;;;4.90;15.20;;;;;;5024512;28;20462;-85
2023/02/10 08:31:26;;;;;;;46.63;28.07;;;4.90;1.00;;;;;;5014324;28;20433;-83
2023/02/10 08:33:53;;;;;;;51.67;26.57;;;5.00;1.00;;;;;;4970085;28;20496;-83
2023/02/10 08:36:21;;;;;;;52.87;29.30;;;5.00;1.00;;;;;;4965835;29;20480;-82
2023/02/10 08:38:50;;;;;;;48.50;25.63;;;4.90;1.00;;;;;;4966530;29;20463;-83
2023/02/10 08:41:18;;;;;;;51.80;28.17;;;5.00;12.40;;;;;;4966262;28;20454;-84
2023/02/10 08:43:45;;;;;;;77.93;42.53;;;5.20;1.00;;;;;;4966149;28;20790;-83
2023/02/10 08:46:13;;;;;;;59.13;27.90;;;5.30;1.00;;;;;;4962427;29;20464;-84
2023/02/10 08:48:40;;;;;;;52.53;26.50;;;5.40;1.00;;;;;;4960136;29;20523;-84
2023/02/10 08:51:08;;;;;;;45.00;26.70;;;5.60;1.00;;;;;;4955180;28;20547;-82
2023/02/10 08:53:35;;;;;;;43.37;28.00;;;5.80;1.00;;;;;;4957363;28;20468;-83
2023/02/10 08:56:04;;;;;;;53.27;29.70;;;6.10;1.00;;;;;;4963197;28;20447;-84
2023/02/10 08:58:31;;;;;;;42.57;26.33;;;6.30;1.00;;;;;;4964660;28;20487;-82
2023/02/10 09:00:58;;;;;;;51.10;27.97;;;6.20;1.00;;;;;;4964212;28;20460;-83
2023/02/10 09:03:26;;;;;;;47.40;24.57;;;6.20;1.00;;;;;;4958996;29;21059;-82
2023/02/10 09:05:53;;;;;;;48.80;26.57;;;6.20;1.00;;;;;;4959591;29;20436;-82
2023/02/10 09:08:21;;;;;;;44.53;25.33;;;6.30;1.00;;;;;;4960868;29;20466;-83
2023/02/10 09:10:48;;;;;;;46.30;24.93;;;6.60;1.00;;;;;;4961141;29;20557;-83
2023/02/10 09:13:15;;;;;;;43.47;25.70;;;6.60;1.00;;;;;;4961240;29;20455;-82
2023/02/10 09:15:43;;;;;;;42.70;25.73;;;6.50;1.00;;;;;;4960452;29;20470;-82
2023/02/10 09:18:10;;;;;;;42.50;23.00;;;6.50;1.00;;;;;;4961762;29;20456;-83
2023/02/10 09:20:39;;;;;;;47.40;24.60;;;6.60;99.90;;;;;;4963592;28;20451;-84
2023/02/10 09:23:06;;;;;;;42.17;25.00;;;6.80;99.90;;;;;;4962313;28;20509;-83
2023/02/10 09:25:33;;;;;;;44.23;24.80;;;6.70;99.90;;;;;;4965048;29;20551;-81
2023/02/10 09:28:00;;;;;;;40.80;25.07;;;6.80;99.90;;;;;;4966282;28;20506;-81
2023/02/10 09:30:27;;;;;;;42.97;23.00;;;6.70;99.90;;;;;;4960222;28;20498;-83
2023/02/10 09:32:55;;;;;;;51.70;25.00;;;6.70;99.90;;;;;;4968309;28;20503;-82
2023/02/10 09:35:22;;;;;;;44.07;25.57;;;6.80;99.90;;;;;;4962054;29;20536;-83
2023/02/10 09:37:50;;;;;;;35.53;23.00;;;6.90;99.90;;;;;;4965728;29;20558;-82
2023/02/10 09:40:21;;;;;;;43.07;24.53;;;6.70;99.90;;;;;;4962772;28;20527;-83
2023/02/10 09:43:04;;;;;;;47.63;26.00;;;6.60;99.90;;;;;;4952234;29;20546;-84
2023/02/10 09:45:36;;;;;;;42.17;25.67;;;6.60;99.90;;;;;;4965041;28;20451;-81
2023/02/10 09:48:14;;;;;;;45.53;25.83;;;6.40;99.90;;;;;;4963563;29;20523;-83
2023/02/10 09:50:51;;;;;;;40.50;23.60;;;6.40;99.90;;;;;;4965668;28;20505;-82
2023/02/10 09:53:21;;;;;;;49.13;28.47;;;6.40;1.00;;;;;;4965687;29;20481;-82
2023/02/10 09:55:51;;;;;;;46.67;25.70;;;6.20;99.90;;;;;;4968549;29;20460;-83
2023/02/10 09:58:24;;;;;;;45.00;25.70;;;6.10;1.00;;;;;;4966544;28;21141;-81
2023/02/10 10:00:56;;;;;;;46.20;24.10;;;6.30;1.00;;;;;;4964050;29;20455;-83
2023/02/10 10:03:28;;;;;;;46.57;27.03;;;6.60;99.90;;;;;;4965264;28;20497;-83
2023/02/10 10:06:03;;;;;;;45.17;24.33;;;6.70;99.90;;;;;;4964160;29;20446;-83
2023/02/10 10:08:39;;;;;;;40.10;25.80;;;7.00;99.90;;;;;;4963933;29;20543;-81
2023/02/10 10:11:17;;;;;;;47.03;27.07;;;7.50;99.90;;;;;;4972159;28;20570;-82
2023/02/10 10:13:44;;;;;;;47.07;25.43;;;7.60;12.90;;;;;;4972416;28;20473;-82
2023/02/10 10:16:23;;;;;;;51.50;28.90;;;7.60;99.90;;;;;;4972716;28;20468;-81
2023/02/10 10:19:01;;;;;;;46.47;25.37;;;7.60;1.00;;;;;;4970196;28;20456;-82
2023/02/10 10:21:37;;;;;;;41.53;25.73;;;7.70;99.90;;;;;;4965854;28;20473;-82
2023/02/10 10:24:20;;;;;;;40.37;22.33;;;7.90;1.00;;;;;;4955612;29;20833;-82
2023/02/10 10:26:57;;;;;;;38.30;23.13;;;8.30;99.90;;;;;;4951772;28;20461;-82
2023/02/10 10:29:33;;;;;;;39.13;23.70;;;8.20;1.00;;;;;;4954739;28;20455;-80
2023/02/10 10:32:13;;;;;;;38.47;24.27;;;8.10;1.00;;;;;;4946037;29;20479;-81
2023/02/10 10:34:43;;;;;;;49.60;23.30;;;8.30;99.90;;;;;;4941221;29;20469;-81
2023/02/10 10:37:16;;;;;;;36.83;20.50;;;9.10;7.80;;;;;;4953138;29;20491;-81
2023/02/10 10:39:46;;;;;;;35.70;21.30;;;9.80;99.90;;;;;;4948528;28;20454;-80
2023/02/10 10:42:21;;;;;;;36.63;24.20;;;10.10;99.90;;;;;;4953595;28;20464;-81
2023/02/10 10:44:50;;;;;;;38.83;22.13;;;10.30;91.40;;;;;;4953986;28;20509;-81
2023/02/10 10:47:21;;;;;;;36.87;22.77;;;10.20;50.40;;;;;;4951856;28;20461;-78
2023/02/10 10:49:48;;;;;;;37.60;21.70;;;9.70;28.40;;;;;;4947647;28;20581;-80
2023/02/10 10:52:28;;;;;;;41.97;23.20;;;10.40;88.80;;;;;;4954051;28;20475;-79
2023/02/10 10:54:56;;;;;;;35.70;23.07;;;11.00;1.00;;;;;;4948237;28;20922;-81
2023/02/10 10:57:24;;;;;;;39.37;23.63;;;11.40;1.00;;;;;;4955231;28;20452;-82
2023/02/10 10:59:55;;;;;;;39.07;23.73;;;10.90;1.00;;;;;;4957153;28;20543;-80
2023/02/10 11:02:24;;;;;;;39.27;22.23;;;10.80;1.00;;;;;;4950792;28;20467;-82
2023/02/10 11:05:01;;;;;;;35.63;22.30;;;10.80;1.00;;;;;;4948783;28;20473;-81
2023/02/10 11:07:33;;;;;;;34.87;21.77;;;12.20;1.00;;;;;;5017221;23;20902;-84
2023/02/10 11:10:03;;;;;;;35.77;22.73;;;13.00;1.00;;;;;;4988260;28;20501;-86
2023/02/10 11:12:35;;;;;;;36.90;21.33;;;13.70;1.00;;;;;;4992499;28;20447;-84
2023/02/10 11:15:06;;;;;;;35.27;23.13;;;13.10;1.00;;;;;;4987098;28;20455;-85
2023/02/10 11:17:42;;;;;;;38.87;22.43;;;12.60;1.00;;;;;;4993224;28;20480;-85
2023/02/10 11:20:27;;;;;;;36.93;23.23;;;12.00;1.00;;;;;;4987085;28;20481;-84
2023/02/10 11:23:13;;;;;;;39.40;23.27;;;11.60;1.00;;;;;;4995167;28;20469;-84
2023/02/10 11:25:57;;;;;;;36.43;23.53;;;12.00;1.00;;;;;;5009286;28;20443;-85
2023/02/10 11:28:27;;;;;;;30.83;21.90;;;13.20;1.00;;;;;;5005661;28;20476;-85
2023/02/10 11:31:01;;;;;;;33.40;22.53;;;14.60;1.00;;;;;;4989097;28;20455;-84
2023/02/10 11:33:33;;;;;;;35.87;21.70;;;15.20;1.00;;;;;;4987729;28;20538;-85
2023/02/10 11:36:11;;;;;;;30.00;22.00;;;14.40;1.00;;;;;;4983513;28;20867;-84
2023/02/10 11:38:44;;;;;;;30.50;21.07;;;13.80;1.00;;;;;;4970550;28;20477;-84
2023/02/10 11:41:16;;;;;;;35.47;22.03;;;13.50;1.00;;;;;;4982341;28;20494;-84
2023/02/10 11:43:45;;;;;;;32.80;22.20;;;14.20;1.00;;;;;;4983339;28;20456;-83
2023/02/10 11:46:22;;;;;;;36.73;22.30;;;15.80;1.00;;;;;;4975015;28;20514;-84
2023/02/10 11:48:59;;;;;;;36.53;22.10;;;15.50;1.00;;;;;;4974594;28;20449;-85
2023/02/10 11:51:30;;;;;;;28.03;19.70;;;16.20;1.00;;;;;;4983220;28;20792;-85
2023/02/10 11:53:58;;;;;;;29.03;21.27;;;16.10;1.00;;;;;;4981651;28;20495;-83
2023/02/10 11:59:31;;;;;;;31.10;20.97;;;16.10;1.00;;;;;;4981905;28;20496;-82
2023/02/10 12:02:03;;;;;;;29.97;19.80;;;16.70;1.00;;;;;;4983812;28;20505;-86
2023/02/10 12:05:04;;;;;;;31.33;21.90;;;16.20;1.00;;;;;;4982787;28;20469;-84
2023/02/10 12:08:06;;;;;;;28.87;21.07;;;15.90;1.00;;;;;;4968450;28;20498;-85
2023/02/10 12:10:40;;;;;;;28.80;20.17;;;17.50;1.00;;;;;;4976885;28;20468;-81
2023/02/10 12:13:48;;;;;;;31.70;20.23;;;16.80;1.00;;;;;;4985788;28;20442;-87
2023/02/10 12:16:26;;;;;;;36.60;20.30;;;16.40;1.00;;;;;;4983059;28;20547;-86
2023/02/10 12:19:06;;;;;;;32.80;19.67;;;15.40;1.00;;;;;;4982544;28;20447;-83
2023/02/10 12:21:59;;;;;;;31.17;20.90;;;15.50;1.00;;;;;;4990710;28;20495;-86
2023/02/10 12:24:51;;;;;;;28.63;19.77;;;16.60;1.00;;;;;;4981244;28;20920;-85
2023/02/10 12:27:23;;;;;;;33.13;19.33;;;17.40;1.00;;;;;;4985844;28;20477;-82
2023/02/10 12:30:02;;;;;;;28.50;18.93;;;17.90;1.00;;;;;;4978003;28;20463;-86
2023/02/10 12:32:40;;;;;;;27.83;19.27;;;17.90;1.00;;;;;;4990742;28;20478;-84
2023/02/10 12:35:23;;;;;;;27.53;18.33;;;18.70;1.00;;;;;;4967375;28;20509;-84
2023/02/10 12:38:01;;;;;;;26.37;17.77;;;18.30;1.00;;;;;;4982318;28;20477;-86
2023/02/10 12:40:47;;;;;;;25.50;17.30;;;16.90;1.00;;;;;;4983203;28;20479;-85
2023/02/10 12:43:38;;;;;;;28.20;18.73;;;15.50;99.90;;;;;;4984142;28;20455;-85
2023/02/10 12:46:18;;;;;;;33.13;17.70;;;14.90;99.90;;;;;;4983603;28;20568;-84
2023/02/10 12:49:13;;;;;;;34.77;17.40;;;14.60;99.90;;;;;;4983671;28;20532;-85
2023/02/10 12:52:03;;;;;;;27.20;18.10;;;14.10;99.90;;;;;;4982627;28;20486;-85
2023/02/10 12:54:36;;;;;;;32.77;19.90;;;13.30;99.90;;;;;;4983123;28;20454;-81
2023/02/10 12:57:09;;;;;;;29.20;18.47;;;11.70;99.90;;;;;;4983741;28;20475;-85
2023/02/10 12:59:44;;;;;;;28.83;18.83;;;11.60;99.90;;;;;;4965000;28;20513;-85
2023/02/10 13:02:20;;;;;;;31.63;18.43;;;12.20;99.90;;;;;;4962906;28;20589;-84
2023/02/10 13:04:51;;;;;;;26.90;16.80;;;12.70;99.90;;;;;;4962645;28;20552;-85
2023/02/10 13:07:27;;;;;;;29.03;16.93;;;11.30;99.90;;;;;;4965014;28;20556;-84
2023/02/10 13:10:01;;;;;;;28.93;16.40;;;11.80;99.90;;;;;;4964502;28;20456;-83
2023/02/10 13:12:30;;;;;;;35.50;17.90;;;11.90;99.90;;;;;;4973258;28;20443;-86